EWG397 EDLP-EDDS
Flight info
| Callsign | EWG397 |
|---|---|
| Flight time | 0h 39m |
| Altitude | 22000 |
| Route | GISDI1W GISDI Y13 ALEXU N850 KRH T128 BADSO BADSO2A |
| Aircraft | A320/M-VGDW/C |
Departure
| Time | 2026-05-04 10:56 |
|---|---|
| Airport | Paderborn Lippstadt Airport (EDLP) |
Arrival
| Time | 2026-05-04 11:35 |
|---|---|
| Airport | Stuttgart Airport (EDDS) |
| Time | Latitude | Longitude | Altitude | Speed | Heading |
|---|---|---|---|---|---|
| 2026-05-04 10:40 | 51.61121 | 8.61925 | 705 ft | 0 kts | 147° |
| 2026-05-04 10:49 | 51.61150 | 8.61869 | 695 ft | 0 kts | 115° |
| 2026-05-04 10:54 | 51.61459 | 8.62242 | 696 ft | 21 kts | 57° |
| 2026-05-04 10:54 | 51.61547 | 8.62455 | 697 ft | 24 kts | 54° |
| 2026-05-04 10:56 | 51.61497 | 8.61845 | 705 ft | 119 kts | 237° |
| 2026-05-04 10:56 | 51.60961 | 8.60494 | 829 ft | 155 kts | 240° |
| 2026-05-04 10:56 | 51.60416 | 8.59051 | 1546 ft | 150 kts | 239° |
| 2026-05-04 10:57 | 51.59849 | 8.57608 | 2099 ft | 161 kts | 238° |
| 2026-05-04 10:57 | 51.59199 | 8.55974 | 2397 ft | 186 kts | 239° |
| 2026-05-04 10:57 | 51.58455 | 8.54105 | 2735 ft | 210 kts | 239° |
| 2026-05-04 10:57 | 51.57589 | 8.52042 | 3160 ft | 234 kts | 236° |
| 2026-05-04 10:58 | 51.56562 | 8.49878 | 3893 ft | 251 kts | 224° |
| 2026-05-04 10:58 | 51.55088 | 8.48400 | 4806 ft | 261 kts | 196° |
| 2026-05-04 10:58 | 51.53265 | 8.48300 | 5717 ft | 266 kts | 176° |
| 2026-05-04 10:58 | 51.51451 | 8.48857 | 6707 ft | 271 kts | 160° |
| 2026-05-04 10:59 | 51.49861 | 8.50603 | 7467 ft | 281 kts | 140° |
| 2026-05-04 10:59 | 51.48431 | 8.52793 | 8307 ft | 287 kts | 138° |
| 2026-05-04 10:59 | 51.47001 | 8.55061 | 9201 ft | 291 kts | 138° |
| 2026-05-04 10:59 | 51.45530 | 8.57308 | 10096 ft | 294 kts | 140° |
| 2026-05-04 11:00 | 51.43962 | 8.59581 | 10514 ft | 315 kts | 141° |
| 2026-05-04 11:01 | 51.30666 | 8.77132 | 14899 ft | 369 kts | 144° |
| 2026-05-04 11:02 | 51.28671 | 8.79735 | 15580 ft | 372 kts | 144° |
| 2026-05-04 11:02 | 51.26597 | 8.82206 | 16236 ft | 372 kts | 151° |
| 2026-05-04 11:05 | 50.91600 | 8.91539 | 22008 ft | 405 kts | 194° |
| 2026-05-04 11:06 | 50.88845 | 8.90608 | 22008 ft | 405 kts | 194° |
| 2026-05-04 11:06 | 50.86086 | 8.89683 | 22010 ft | 405 kts | 194° |
| 2026-05-04 11:06 | 50.83326 | 8.88763 | 22008 ft | 405 kts | 194° |
| 2026-05-04 11:06 | 50.80572 | 8.87844 | 22014 ft | 405 kts | 194° |
| 2026-05-04 11:08 | 50.61225 | 8.82433 | 22010 ft | 410 kts | 176° |
| 2026-05-04 11:10 | 50.41407 | 8.86612 | 22009 ft | 410 kts | 175° |
| 2026-05-04 11:12 | 50.21677 | 8.90752 | 22015 ft | 409 kts | 175° |
| 2026-05-04 11:12 | 50.18851 | 8.91157 | 22014 ft | 407 kts | 182° |
| 2026-05-04 11:12 | 50.16052 | 8.90732 | 22014 ft | 403 kts | 194° |
| 2026-05-04 11:12 | 50.13389 | 8.89444 | 22013 ft | 400 kts | 205° |
| 2026-05-04 11:13 | 50.10955 | 8.87364 | 22009 ft | 399 kts | 216° |
| 2026-05-04 11:13 | 50.08825 | 8.84607 | 22008 ft | 398 kts | 223° |
| 2026-05-04 11:13 | 50.06672 | 8.81901 | 21999 ft | 399 kts | 214° |
| 2026-05-04 11:13 | 50.04227 | 8.79876 | 21999 ft | 400 kts | 203° |
| 2026-05-04 11:14 | 50.03378 | 8.79374 | 21999 ft | 401 kts | 200° |
| 2026-05-04 11:14 | 49.97936 | 8.77366 | 22000 ft | 402 kts | 194° |
| 2026-05-04 11:16 | 49.77000 | 8.70118 | 22015 ft | 402 kts | 194° |
| 2026-05-04 11:16 | 49.74262 | 8.69200 | 22018 ft | 403 kts | 192° |
| 2026-05-04 11:16 | 49.71479 | 8.68700 | 22023 ft | 404 kts | 187° |
| 2026-05-04 11:17 | 49.68674 | 8.68330 | 22024 ft | 404 kts | 187° |
| 2026-05-04 11:17 | 49.65873 | 8.67955 | 22027 ft | 404 kts | 187° |
| 2026-05-04 11:19 | 49.46926 | 8.65409 | 19295 ft | 377 kts | 186° |
| 2026-05-04 11:19 | 49.44320 | 8.65060 | 18780 ft | 375 kts | 186° |
| 2026-05-04 11:19 | 49.41732 | 8.64716 | 18262 ft | 372 kts | 186° |
| 2026-05-04 11:19 | 49.39164 | 8.64374 | 17691 ft | 369 kts | 186° |
| 2026-05-04 11:20 | 49.36648 | 8.64038 | 17175 ft | 367 kts | 186° |
| 2026-05-04 11:20 | 49.34106 | 8.63702 | 17004 ft | 366 kts | 186° |
| 2026-05-04 11:20 | 49.31568 | 8.63363 | 16925 ft | 365 kts | 186° |
| 2026-05-04 11:20 | 49.29048 | 8.62997 | 16373 ft | 362 kts | 186° |
| 2026-05-04 11:22 | 49.11876 | 8.60505 | 12669 ft | 345 kts | 175° |
| 2026-05-04 11:22 | 49.09569 | 8.61418 | 12149 ft | 344 kts | 157° |
| 2026-05-04 11:23 | 49.07595 | 8.63442 | 11623 ft | 344 kts | 138° |
| 2026-05-04 11:23 | 49.06177 | 8.66360 | 11103 ft | 345 kts | 118° |
| 2026-05-04 11:24 | 49.01868 | 8.86013 | 9425 ft | 291 kts | 111° |
| 2026-05-04 11:25 | 49.01246 | 8.88859 | 9221 ft | 283 kts | 111° |
| 2026-05-04 11:25 | 49.00625 | 8.91693 | 8829 ft | 281 kts | 111° |
| 2026-05-04 11:25 | 49.00004 | 8.94520 | 8455 ft | 280 kts | 110° |
| 2026-05-04 11:26 | 48.98773 | 9.00137 | 8008 ft | 280 kts | 110° |
| 2026-05-04 11:27 | 48.94439 | 9.19868 | 7565 ft | 279 kts | 110° |
| 2026-05-04 11:28 | 48.93818 | 9.22662 | 7178 ft | 279 kts | 111° |
| 2026-05-04 11:28 | 48.92870 | 9.25187 | 6853 ft | 275 kts | 133° |
| 2026-05-04 11:28 | 48.91520 | 9.27240 | 6537 ft | 274 kts | 137° |
| 2026-05-04 11:28 | 48.90128 | 9.29215 | 6209 ft | 273 kts | 137° |
| 2026-05-04 11:29 | 48.88731 | 9.31173 | 5876 ft | 273 kts | 138° |
| 2026-05-04 11:29 | 48.87346 | 9.33128 | 5544 ft | 271 kts | 138° |
| 2026-05-04 11:29 | 48.85966 | 9.35081 | 5213 ft | 270 kts | 138° |
| 2026-05-04 11:29 | 48.84600 | 9.37036 | 4890 ft | 269 kts | 138° |
| 2026-05-04 11:31 | 48.75056 | 9.45972 | 4011 ft | 204 kts | 200° |
| 2026-05-04 11:33 | 48.71370 | 9.34838 | 2599 ft | 143 kts | 256° |
| 2026-05-04 11:33 | 48.71099 | 9.33398 | 2415 ft | 142 kts | 256° |
| 2026-05-04 11:33 | 48.70832 | 9.31973 | 2205 ft | 138 kts | 256° |
| 2026-05-04 11:34 | 48.70571 | 9.30581 | 2034 ft | 139 kts | 257° |
| 2026-05-04 11:34 | 48.70304 | 9.29149 | 1858 ft | 146 kts | 256° |
| 2026-05-04 11:34 | 48.70028 | 9.27659 | 1673 ft | 148 kts | 255° |
| 2026-05-04 11:34 | 48.69747 | 9.26194 | 1464 ft | 142 kts | 255° |
| 2026-05-04 11:35 | 48.69472 | 9.24757 | 1283 ft | 141 kts | 256° |
| 2026-05-04 11:35 | 48.69214 | 9.23365 | 1213 ft | 127 kts | 254° |
| 2026-05-04 11:35 | 48.69006 | 9.22290 | 1233 ft | 84 kts | 254° |
| 2026-05-04 11:35 | 48.68889 | 9.21673 | 1259 ft | 47 kts | 254° |
| 2026-05-04 11:36 | 48.68815 | 9.21235 | 1262 ft | 40 kts | 266° |
| 2026-05-04 11:36 | 48.68843 | 9.20930 | 1267 ft | 24 kts | 283° |
| 2026-05-04 11:36 | 48.68876 | 9.20695 | 1275 ft | 22 kts | 265° |
| 2026-05-04 11:36 | 48.68837 | 9.20479 | 1280 ft | 21 kts | 254° |
| 2026-05-04 11:37 | 48.68798 | 9.20271 | 1285 ft | 20 kts | 253° |
| 2026-05-04 11:37 | 48.68759 | 9.20070 | 1289 ft | 20 kts | 254° |
| 2026-05-04 11:37 | 48.68795 | 9.19952 | 1295 ft | 9 kts | 313° |
| 2026-05-04 11:37 | 48.68833 | 9.19901 | 1298 ft | 10 kts | 330° |
| 2026-05-04 11:38 | 48.68887 | 9.19803 | 1305 ft | 17 kts | 252° |
| 2026-05-04 11:38 | 48.68852 | 9.19621 | 1309 ft | 18 kts | 254° |
| 2026-05-04 11:38 | 48.68819 | 9.19443 | 1312 ft | 16 kts | 254° |
| 2026-05-04 11:38 | 48.68814 | 9.19311 | 1315 ft | 10 kts | 327° |
| 2026-05-04 11:39 | 48.68865 | 9.19290 | 1316 ft | 0 kts | 343° |
| 2026-05-04 11:39 | 48.68868 | 9.19289 | 1316 ft | 0 kts | 343° |